• Join FlightAware (Why Join?)
  • Login
  • US Flag 
Gobble Gobble! 
04:16PM EST


 

Airport Tracker/Info


-or-


 

Live Flight TrackerFlight Track Log ✈ PT-MBZ ✈ 03-Apr-2014 ✈ TJBQ / BQN - SMJP / PBM

Flight Track Log - Related Links

Times and Time Zones

All times are in EDT time to prevent confusion due to time zone crossing. See the PT-MBZ flight status page for this flight to view local times or setup timezone preferences in your user account.

Time Position Orientation Groundspeed Altitude Reporting Facility
EDT Latitude Longitude Course Direction KTS MPH feet Rate Location/Type
08:41PM 18.5000 -67.0667 139° Southeast 170 196 2,900  Level San Juan Center
08:42PM 18.4500 -67.0500 162° South 210 242 5,400 2,100 Climbing San Juan Center
08:43PM 18.4000 -67.0167 148° Southeast 250 288 7,200 1,980 Climbing San Juan Center
08:44PM 18.3333 -66.9667 145° Southeast 270 311 9,400 2,220 Climbing San Juan Center
08:45PM 18.2667 -66.9167 145° Southeast 280 322 11,700 2,100 Climbing San Juan Center
08:46PM 18.0154 -66.6555 139° Southeast  Level Estimated
08:46PM 18.2000 -66.8500 136° Southeast 300 345 13,700  Level San Juan Center
08:47PM 18.1333 -66.8000 145° Southeast 310 357 15,200 1,680 Climbing San Juan Center
08:48PM 18.0667 -66.7333 136° Southeast 320 368 17,100 1,680 Climbing San Juan Center
08:49PM 18.0000 -66.6667 136° Southeast 340 391 18,700 1,500 Climbing San Juan Center
08:50PM 17.9167 -66.6167 150° Southeast 340 391 20,200 1,380 Climbing San Juan Center
08:51PM 17.8500 -66.5500 136° Southeast 350 403 21,500 1,260 Climbing San Juan Center
08:52PM 17.7667 -66.4833 143° Southeast 370 426 22,800 1,080 Climbing San Juan Center
08:53PM 17.6833 -66.4000 136° Southeast 380 437 23,700 1,020 Climbing San Juan Center
08:54PM 17.5833 -66.3167 142° Southeast 390 449 24,900 840 Climbing San Juan Center
08:55PM 17.5000 -66.2500 143° Southeast 400 460 25,500 600 Climbing San Juan Center
08:56PM 17.4167 -66.1667 136° Southeast 420 483 26,200 900 Climbing San Juan Center
08:57PM 17.3167 -66.0833 141° Southeast 430 495 27,300 1,020 Climbing San Juan Center
08:58PM 17.2167 -66.0167 148° Southeast 430 495 28,300 900 Climbing San Juan Center
08:59PM 17.1333 -65.9333 136° Southeast 430 495 29,200 840 Climbing San Juan Center
09:00PM 17.0333 -65.8500 141° Southeast 430 495 30,000 600 Climbing San Juan Center
09:01PM 16.9500 -65.7667 136° Southeast 430 495 30,400 240 Climbing San Juan Center
09:02PM 16.8500 -65.7000 147° Southeast 450 518 30,600 420 Climbing San Juan Center
09:03PM 16.7500 -65.6167 141° Southeast 450 518 31,300 540 Climbing San Juan Center
09:04PM 16.6500 -65.5333 141° Southeast 450 518 31,700 420 Climbing San Juan Center
09:05PM 16.5500 -65.4500 141° Southeast 450 518 32,200 780 Climbing San Juan Center
09:06PM 16.4667 -65.3667 136° Southeast 450 518 33,300 1,380 Climbing San Juan Center
09:07PM 16.3667 -65.2833 141° Southeast 410 472 35,000 840 Climbing San Juan Center
09:08PM 16.2833 -65.2167 142° Southeast 410 472 35,000  Level San Juan Center
09:09PM 16.2000 -65.1333 136° Southeast 420 483 35,000  Level San Juan Center
09:10PM 16.0833 -65.0500 146° Southeast 440 506 35,000  Level San Juan Center
09:11PM 16.0000 -64.9833 142° Southeast 430 495 35,000  Level San Juan Center
09:12PM 15.9000 -64.9000 141° Southeast 430 495 35,000  Level San Juan Center
09:13PM 15.8167 -64.8333 142° Southeast 430 495 35,000  Level San Juan Center
09:14PM 15.7167 -64.7500 141° Southeast 450 518 35,000  Level San Juan Center
09:15PM 15.6167 -64.6667 141° Southeast 440 506 35,000  Level San Juan Center
09:16PM 15.5333 -64.5833 136° Southeast 450 518 35,000  Level San Juan Center
09:17PM 15.4333 -64.5000 141° Southeast 430 495 35,000  Level San Juan Center
09:18PM 15.3333 -64.4167 141° Southeast 440 506 35,000  Level San Juan Center
09:21PM 15.0500 -64.1833 141° Southeast 430 495 35,000  Level San Juan Center
09:23PM 14.9232 -64.0579 136° Southeast  Level FlightAware Approximate
09:30PM 14.3660 -63.5127 137° Southeast  Level FlightAware Approximate
09:31PM 14.2863 -63.4351 137° Southeast  Level FlightAware Approximate
09:32PM 14.2066 -63.3575 137° Southeast  Level FlightAware Approximate
09:33PM 14.1269 -63.2799 137° Southeast  Level FlightAware Approximate
09:34PM 14.0471 -63.2024 137° Southeast  Level FlightAware Approximate
09:35PM 13.9673 -63.1250 137° Southeast  Level FlightAware Approximate
09:36PM 13.8875 -63.0476 137° Southeast  Level FlightAware Approximate
09:37PM 13.8076 -62.9702 137° Southeast  Level FlightAware Approximate
09:38PM 13.7277 -62.8930 137° Southeast  Level FlightAware Approximate
09:39PM 13.6478 -62.8158 137° Southeast  Level FlightAware Approximate
09:40PM 13.5679 -62.7386 137° Southeast  Level FlightAware Approximate
09:41PM 13.4880 -62.6614 137° Southeast  Level FlightAware Approximate
09:42PM 13.4080 -62.5844 137° Southeast  Level FlightAware Approximate
09:43PM 13.3280 -62.5074 137° Southeast  Level FlightAware Approximate
09:44PM 13.2480 -62.4304 137° Southeast  Level FlightAware Approximate
09:45PM 13.1680 -62.3535 137° Southeast  Level FlightAware Approximate
09:46PM 13.0879 -62.2766 137° Southeast  Level FlightAware Approximate
09:47PM 13.0078 -62.1998 137° Southeast  Level FlightAware Approximate
09:48PM 12.9277 -62.1230 137° Southeast  Level FlightAware Approximate
09:49PM 12.8476 -62.0463 137° Southeast  Level FlightAware Approximate
09:50PM 12.7674 -61.9696 137° Southeast  Level FlightAware Approximate
09:51PM 12.6873 -61.8930 137° Southeast  Level FlightAware Approximate
09:52PM 12.6071 -61.8164 137° Southeast  Level FlightAware Approximate
09:53PM 12.5268 -61.7399 137° Southeast  Level FlightAware Approximate
09:54PM 12.4466 -61.6634 137° Southeast  Level FlightAware Approximate
09:55PM 12.3664 -61.5870 137° Southeast  Level FlightAware Approximate
09:56PM 12.2861 -61.5106 137° Southeast  Level FlightAware Approximate
09:57PM 12.2058 -61.4343 137° Southeast  Level FlightAware Approximate
09:58PM 12.1254 -61.3580 137° Southeast  Level FlightAware Approximate
09:59PM 12.0451 -61.2817 137° Southeast  Level FlightAware Approximate
10:00PM 11.9647 -61.2055 137° Southeast  Level FlightAware Approximate
10:01PM 11.8843 -61.1294 137° Southeast  Level FlightAware Approximate
10:02PM 11.8039 -61.0533 137° Southeast  Level FlightAware Approximate
10:03PM 11.7235 -60.9772 137° Southeast  Level FlightAware Approximate
10:04PM 11.6431 -60.9012 137° Southeast  Level FlightAware Approximate
10:05PM 11.5626 -60.8252 137° Southeast  Level FlightAware Approximate
10:06PM 11.4821 -60.7493 137° Southeast  Level FlightAware Approximate
10:07PM 11.4016 -60.6734 137° Southeast  Level FlightAware Approximate
10:08PM 11.3211 -60.5975 137° Southeast  Level FlightAware Approximate
10:09PM 11.2405 -60.5217 137° Southeast  Level FlightAware Approximate
10:10PM 11.1600 -60.4460 137° Southeast  Level FlightAware Approximate
10:11PM 11.0794 -60.3702 137° Southeast  Level FlightAware Approximate
10:12PM 10.9988 -60.2946 137° Southeast  Level FlightAware Approximate
10:13PM 10.9182 -60.2189 137° Southeast  Level FlightAware Approximate
10:14PM 10.8375 -60.1433 137° Southeast  Level FlightAware Approximate
10:15PM 10.7569 -60.0678 137° Southeast  Level FlightAware Approximate
10:16PM 10.6762 -59.9923 137° Southeast  Level FlightAware Approximate
10:17PM 10.5955 -59.9168 137° Southeast  Level FlightAware Approximate
10:18PM 10.5148 -59.8414 137° Southeast  Level FlightAware Approximate
10:19PM 10.4341 -59.7660 137° Southeast  Level FlightAware Approximate
10:20PM 10.3533 -59.6906 137° Southeast  Level FlightAware Approximate
10:21PM 10.2726 -59.6153 137° Southeast  Level FlightAware Approximate
10:22PM 10.1918 -59.5400 137° Southeast  Level FlightAware Approximate
10:23PM 10.1110 -59.4648 137° Southeast  Level FlightAware Approximate
10:24PM 10.0302 -59.3896 137° Southeast  Level FlightAware Approximate
10:25PM 9.9493 -59.3144 138° Southeast  Level FlightAware Approximate
10:26PM 9.8685 -59.2393 138° Southeast  Level FlightAware Approximate
10:27PM 9.7876 -59.1642 138° Southeast  Level FlightAware Approximate
10:28PM 9.7067 -59.0891 138° Southeast  Level FlightAware Approximate
10:29PM 9.6258 -59.0141 138° Southeast  Level FlightAware Approximate
10:30PM 9.5449 -58.9391 138° Southeast  Level FlightAware Approximate
10:31PM 9.4640 -58.8642 138° Southeast  Level FlightAware Approximate
10:32PM 9.3830 -58.7893 138° Southeast  Level FlightAware Approximate
10:33PM 9.3021 -58.7144 138° Southeast  Level FlightAware Approximate
10:34PM 9.2211 -58.6395 138° Southeast  Level FlightAware Approximate
10:35PM 9.1401 -58.5647 138° Southeast  Level FlightAware Approximate
10:36PM 9.0591 -58.4900 138° Southeast  Level FlightAware Approximate
10:37PM 8.9781 -58.4152 138° Southeast  Level FlightAware Approximate
10:38PM 8.8970 -58.3405 138° Southeast  Level FlightAware Approximate
10:39PM 8.8160 -58.2658 138° Southeast  Level FlightAware Approximate
10:40PM 8.7349 -58.1912 138° Southeast  Level FlightAware Approximate
10:41PM 8.6538 -58.1166 138° Southeast  Level FlightAware Approximate
10:42PM 8.5727 -58.0420 138° Southeast  Level FlightAware Approximate
10:43PM 8.4916 -57.9675 138° Southeast  Level FlightAware Approximate
10:44PM 8.4105 -57.8930 138° Southeast  Level FlightAware Approximate
10:45PM 8.3296 -57.8182 138° Southeast  Level FlightAware Approximate
10:46PM 8.2487 -57.7435 138° Southeast  Level FlightAware Approximate
10:47PM 8.1678 -57.6687 138° Southeast  Level FlightAware Approximate
10:48PM 8.0869 -57.5940 138° Southeast  Level FlightAware Approximate
10:49PM 8.0060 -57.5194 138° Southeast  Level FlightAware Approximate
10:50PM 7.9251 -57.4447 138° Southeast  Level FlightAware Approximate
10:51PM 7.8441 -57.3701 138° Southeast  Level FlightAware Approximate
10:52PM 7.7632 -57.2955 138° Southeast  Level FlightAware Approximate
10:53PM 7.6822 -57.2210 138° Southeast  Level FlightAware Approximate
10:54PM 7.6012 -57.1465 138° Southeast  Level FlightAware Approximate
10:55PM 7.5202 -57.0720 138° Southeast  Level FlightAware Approximate
10:56PM 7.4392 -56.9975 138° Southeast  Level FlightAware Approximate
10:57PM 7.3582 -56.9230 138° Southeast  Level FlightAware Approximate
10:58PM 7.2772 -56.8486 138° Southeast  Level FlightAware Approximate
10:59PM 7.1961 -56.7743 138° Southeast  Level FlightAware Approximate
11:00PM 7.1151 -56.6998 137° Southeast  Level FlightAware Approximate
11:01PM 7.0343 -56.6252 137° Southeast  Level FlightAware Approximate
11:02PM 6.9535 -56.5506 138° Southeast  Level FlightAware Approximate
11:03PM 6.8743 -56.4743 135° Southeast  Level FlightAware Approximate
11:04PM 6.7948 -56.3984 140° Southeast  Level FlightAware Approximate
11:05PM 6.7104 -56.3281 140° Southeast  Level FlightAware Approximate
11:06PM 6.6259 -56.2577 140° Southeast  Level FlightAware Approximate
11:07PM 6.5474 -56.1807 135° Southeast  Level FlightAware Approximate
11:08PM 6.4697 -56.1030 135° Southeast  Level FlightAware Approximate
11:09PM 6.3914 -56.0259 139° Southeast  Level FlightAware Approximate
11:10PM 6.3082 -55.9540 139° Southeast  Level FlightAware Approximate
11:11PM 6.2251 -55.8822 139° Southeast  Level FlightAware Approximate
11:12PM 6.1419 -55.8104 139° Southeast  Level FlightAware Approximate
11:13PM 6.0587 -55.7386 139° Southeast  Level FlightAware Approximate
11:14PM 5.9793 -55.6627 135° Southeast  Level FlightAware Approximate
11:15PM 5.9009 -55.5858 138° Southeast  Level FlightAware Approximate
11:16PM 5.8192 -55.5123 138° Southeast  Level FlightAware Approximate
11:17PM 5.7381 -55.4381 135° Southeast  Level FlightAware Approximate
11:18PM 5.6604 -55.3604 135° Southeast  Level FlightAware Approximate
11:19PM 5.5779 -55.2946 135° Southeast  Level FlightAware Approximate
11:20PM 5.4936 -55.2249 127° Southeast  Level FlightAware Approximate
11:21PM 5.4500 -55.1833 270° West  Level FlightAware Approximate
11:22PM 5.4528 -55.1878 270° West  Level Estimated
11:23PM 5.4500 -55.1833 270° West  Level FlightAware Approximate
11:24PM 5.4528 -55.1878 270° West  Level Estimated
11:25PM 5.4500 -55.1833 270° West  Level FlightAware Approximate
11:26PM 5.4528 -55.1878 270° West  Level Estimated
11:27PM 5.4500 -55.1833 270° West  Level FlightAware Approximate
11:28PM 5.4528 -55.1878 270° West  Level Estimated
11:29PM 5.4500 -55.1833 270° West  Level FlightAware Approximate
11:30PM 5.4528 -55.1878 270° West  Level Estimated
11:31PM 5.4500 -55.1833 270° West  Level FlightAware Approximate
11:32PM 5.4528 -55.1878 270° West  Level Estimated
11:33PM 5.4500 -55.1833 270° West  Level FlightAware Approximate
11:34PM 5.4528 -55.1878 270° West  Level Estimated
11:35PM 5.4500 -55.1833 270° West  Level FlightAware Approximate
11:36PM 5.4528 -55.1878 270° West  Level Estimated